Time;durP1;ratioP1;P1;durP2;ratioP2;P2;SDS_P1;SDS_P2;PMS_P1;PMS_P2;Temp;Humidity;BMP_temperature;BMP_pressure;BME280_temperature;BME280_humidity;BME280_pressure;Samples;Min_cycle;Max_cycle;Signal;HPM_P1;HPM_P2
2021/12/24 00:00:15;;;;;;;238.90;223.63;;;7.70;99.90;;;;;;4392176;32;20216;-64
2021/12/24 00:02:42;;;;;;;182.30;168.87;;;7.70;99.90;;;;;;4400191;32;20495;-64
2021/12/24 00:05:10;;;;;;;175.77;163.77;;;7.70;99.90;;;;;;4400359;32;20203;-64
2021/12/24 00:07:37;;;;;;;169.97;158.27;;;7.70;99.90;;;;;;4397199;32;20181;-66
2021/12/24 00:10:07;;;;;;;190.37;176.57;;;7.70;99.90;;;;;;4402692;32;20207;-65
2021/12/24 00:12:37;;;;;;;169.80;157.77;;;7.70;99.90;;;;;;4429645;32;20159;-65
2021/12/24 00:15:19;;;;;;;171.53;159.57;;;7.90;99.90;;;;;;4437325;32;20478;-65
2021/12/24 00:17:45;;;;;;;164.00;152.10;;;7.80;99.90;;;;;;4424829;32;20211;-64
2021/12/24 00:20:37;;;;;;;247.63;232.73;;;7.80;99.90;;;;;;4419955;32;20160;-63
2021/12/24 00:35:04;;;;;;;313.57;295.77;;;7.80;99.90;;;;;;4425697;32;20599;-66
2021/12/24 00:37:22;;;;;;;278.70;263.87;;;7.90;99.90;;;;;;4332152;33;20180;-65
2021/12/24 00:39:55;;;;;;;297.77;282.07;;;7.90;99.90;;;;;;4331440;33;20169;-65
2021/12/24 00:42:23;;;;;;;306.90;290.13;;;8.00;99.90;;;;;;4331697;33;20199;-64
2021/12/24 00:44:50;;;;;;;284.90;269.37;;;8.00;99.90;;;;;;4332035;33;20201;-64
2021/12/24 00:47:17;;;;;;;268.07;253.63;;;8.00;99.90;;;;;;4330822;33;20574;-65
2021/12/24 00:49:44;;;;;;;271.60;256.43;;;8.10;99.90;;;;;;4328989;33;20213;-63
2021/12/24 00:52:23;;;;;;;315.10;297.43;;;8.10;99.90;;;;;;4332228;33;20165;-66
2021/12/24 00:55:06;;;;;;;286.70;270.73;;;8.10;99.90;;;;;;4328563;33;20178;-64
2021/12/24 00:57:35;;;;;;;258.40;244.30;;;8.10;99.90;;;;;;4330043;33;20184;-63
2021/12/24 01:00:04;;;;;;;268.53;253.57;;;8.10;99.90;;;;;;4330503;33;20630;-64
2021/12/24 01:02:31;;;;;;;258.13;243.90;;;8.20;99.90;;;;;;4331765;33;20207;-64
2021/12/24 01:04:58;;;;;;;295.20;279.23;;;8.20;99.90;;;;;;4341135;32;20161;-64
2021/12/24 01:07:27;;;;;;;280.30;264.70;;;8.20;99.90;;;;;;4425103;32;20155;-65
2021/12/24 01:09:54;;;;;;;269.73;255.17;;;8.20;99.90;;;;;;4422866;32;20195;-66
2021/12/24 01:12:21;;;;;;;250.83;237.27;;;8.20;99.90;;;;;;4424081;32;20547;-66
2021/12/24 01:14:50;;;;;;;242.97;229.07;;;8.30;99.90;;;;;;4425406;32;20642;-64
2021/12/24 01:17:29;;;;;;;226.17;213.63;;;8.30;99.90;;;;;;4434339;32;20167;-64
2021/12/24 01:20:03;;;;;;;239.40;226.43;;;8.40;99.90;;;;;;4429419;32;20162;-64
2021/12/24 01:25:23;;;;;;;215.20;203.23;;;8.40;99.90;;;;;;4425554;32;20213;-64
2021/12/24 01:28:05;;;;;;;202.33;190.63;;;8.50;99.90;;;;;;4424211;32;20151;-63
2021/12/24 01:38:59;;;;;;;181.20;168.80;;;8.70;99.90;;;;;;4423920;32;20193;-67
2021/12/24 01:44:10;;;;;;;175.40;163.03;;;8.70;99.90;;;;;;4437836;32;20213;-64
2021/12/24 01:46:39;;;;;;;175.07;162.97;;;8.80;99.90;;;;;;4424963;32;20164;-66
2021/12/24 01:49:06;;;;;;;176.90;163.93;;;8.90;99.90;;;;;;4435551;32;20151;-65
2021/12/24 01:51:33;;;;;;;182.83;170.53;;;8.90;99.90;;;;;;4437092;32;20218;-65
2021/12/24 01:54:00;;;;;;;199.00;185.17;;;8.90;99.90;;;;;;4422326;32;20191;-64
2021/12/24 01:56:27;;;;;;;222.93;208.17;;;8.90;99.90;;;;;;4423772;32;20159;-64
2021/12/24 01:58:54;;;;;;;196.07;181.83;;;9.00;99.90;;;;;;4423652;32;20199;-64
2021/12/24 02:01:25;;;;;;;191.07;177.97;;;9.00;99.90;;;;;;4424492;32;20180;-64
2021/12/24 02:03:53;;;;;;;186.53;173.27;;;9.10;99.90;;;;;;4422039;32;20151;-66
2021/12/24 02:06:21;;;;;;;166.13;153.30;;;9.10;99.90;;;;;;4429572;32;20607;-64
2021/12/24 02:08:48;;;;;;;186.17;172.13;;;9.10;99.90;;;;;;4422079;32;20151;-64
2021/12/24 02:11:15;;;;;;;178.47;165.10;;;9.20;99.90;;;;;;4421648;32;20176;-64
2021/12/24 02:13:41;;;;;;;169.00;156.10;;;9.20;99.90;;;;;;4433903;32;20200;-67
2021/12/24 02:16:16;;;;;;;148.67;136.77;;;9.30;99.90;;;;;;4438556;32;20483;-65
2021/12/24 02:29:49;;;;;;;160.97;148.30;;;9.40;99.90;;;;;;4421497;32;20215;-65
2021/12/24 02:32:16;;;;;;;148.70;137.37;;;9.50;99.90;;;;;;4423027;32;20179;-67
2021/12/24 02:34:43;;;;;;;147.30;135.90;;;9.40;99.90;;;;;;4421728;32;20154;-64
2021/12/24 02:37:13;;;;;;;156.33;144.23;;;9.50;99.90;;;;;;4423352;32;20150;-65
2021/12/24 02:39:40;;;;;;;157.23;145.07;;;9.60;99.90;;;;;;4427864;32;20159;-65
2021/12/24 02:42:16;;;;;;;151.03;140.63;;;9.60;99.90;;;;;;4431563;32;20202;-64
2021/12/24 02:44:43;;;;;;;151.97;140.60;;;9.60;99.90;;;;;;4432083;32;20150;-68
2021/12/24 02:47:25;;;;;;;157.00;145.30;;;9.50;99.90;;;;;;4426059;32;20605;-65
2021/12/24 02:55:23;;;;;;;140.97;129.53;;;9.50;99.90;;;;;;4437356;32;20598;-65
2021/12/24 02:57:51;;;;;;;149.07;138.27;;;9.60;99.90;;;;;;4434192;32;20227;-64
2021/12/24 03:00:25;;;;;;;160.43;149.73;;;9.60;99.90;;;;;;4434392;32;20213;-65
2021/12/24 03:02:52;;;;;;;138.90;128.60;;;9.50;99.90;;;;;;4427448;32;20215;-65
2021/12/24 03:05:21;;;;;;;133.27;123.13;;;9.50;99.90;;;;;;4426600;32;20649;-67
2021/12/24 03:07:49;;;;;;;157.70;147.50;;;9.50;99.90;;;;;;4421293;32;20225;-65
2021/12/24 03:10:19;;;;;;;155.53;145.47;;;9.50;99.90;;;;;;4423071;32;20165;-67
2021/12/24 03:12:50;;;;;;;139.83;130.80;;;9.50;99.90;;;;;;4423166;32;20193;-65
2021/12/24 03:15:19;;;;;;;144.53;135.30;;;9.50;99.90;;;;;;4431294;32;20163;-64
2021/12/24 03:17:50;;;;;;;151.80;141.70;;;9.50;99.90;;;;;;4422337;32;20449;-67
2021/12/24 03:20:17;;;;;;;146.23;135.97;;;9.50;99.90;;;;;;4421280;32;20155;-67
2021/12/24 03:22:50;;;;;;;138.60;128.80;;;9.50;99.90;;;;;;4426190;32;20218;-65
2021/12/24 03:25:19;;;;;;;164.63;154.00;;;9.50;99.90;;;;;;4421046;32;20169;-65
2021/12/24 03:27:46;;;;;;;153.83;144.03;;;9.50;99.90;;;;;;4422418;32;20577;-64
2021/12/24 03:30:13;;;;;;;141.57;131.50;;;9.50;99.90;;;;;;4431144;32;20166;-66
2021/12/24 03:32:40;;;;;;;165.00;154.13;;;9.50;99.90;;;;;;4436962;32;20209;-65
2021/12/24 03:35:08;;;;;;;152.10;142.50;;;9.50;99.90;;;;;;4434373;32;20211;-65
2021/12/24 03:37:35;;;;;;;138.73;129.77;;;9.50;99.90;;;;;;4435002;32;20643;-65
2021/12/24 03:40:02;;;;;;;131.50;123.13;;;9.50;99.90;;;;;;4425911;32;20151;-65
2021/12/24 03:42:31;;;;;;;143.30;134.00;;;9.50;99.90;;;;;;4423926;32;20193;-65
2021/12/24 03:45:07;;;;;;;166.20;156.43;;;9.50;99.90;;;;;;4427127;32;20546;-67
2021/12/24 03:47:38;;;;;;;165.70;155.40;;;9.50;99.90;;;;;;4432177;32;20218;-65
2021/12/24 03:50:10;;;;;;;160.50;150.43;;;9.40;99.90;;;;;;4436006;32;20158;-65
2021/12/24 03:53:01;;;;;;;161.20;151.40;;;9.50;99.90;;;;;;4431469;32;20177;-66
2021/12/24 03:55:25;;;;;;;146.53;137.50;;;9.50;99.90;;;;;;4428090;32;20179;-65
2021/12/24 03:57:54;;;;;;;150.70;141.70;;;9.50;99.90;;;;;;4422866;32;20163;-66
2021/12/24 04:00:23;;;;;;;152.33;142.90;;;9.50;99.90;;;;;;4421580;32;20182;-66
2021/12/24 04:02:50;;;;;;;153.23;143.57;;;9.50;99.90;;;;;;4420163;32;20190;-65
2021/12/24 04:05:18;;;;;;;164.40;154.80;;;9.50;99.90;;;;;;4422032;32;20167;-64
2021/12/24 04:07:45;;;;;;;156.60;146.37;;;9.60;99.90;;;;;;4421104;32;20230;-64
2021/12/24 04:10:21;;;;;;;172.30;162.33;;;9.50;99.90;;;;;;4424783;32;20245;-65
2021/12/24 04:12:48;;;;;;;180.57;170.67;;;9.50;99.90;;;;;;4424189;32;20201;-65
2021/12/24 04:15:16;;;;;;;173.50;163.60;;;9.50;99.90;;;;;;4422884;32;20168;-65
2021/12/24 04:17:44;;;;;;;164.60;154.90;;;9.50;99.90;;;;;;4428839;32;20208;-64
2021/12/24 04:25:41;;;;;;;181.33;172.07;;;9.50;99.90;;;;;;4425192;32;20516;-65
2021/12/24 04:28:07;;;;;;;186.77;176.87;;;9.50;99.90;;;;;;4428376;32;20254;-66
2021/12/24 04:30:42;;;;;;;166.57;157.50;;;9.50;99.90;;;;;;4422914;32;20194;-65
2021/12/24 04:33:15;;;;;;;176.83;166.47;;;9.50;99.90;;;;;;4425132;32;20181;-67
2021/12/24 04:35:55;;;;;;;180.30;170.30;;;9.50;99.90;;;;;;4439809;32;20171;-65
2021/12/24 04:38:34;;;;;;;161.87;152.27;;;9.50;99.90;;;;;;4439538;32;20219;-65
2021/12/24 04:52:04;;;;;;;158.80;150.47;;;9.50;99.90;;;;;;4424913;32;20169;-65
2021/12/24 05:02:55;;;;;;;166.93;157.53;;;9.50;99.90;;;;;;4423978;32;20594;-66
2021/12/24 05:05:25;;;;;;;157.77;149.00;;;9.50;99.90;;;;;;4433729;32;20576;-66
2021/12/24 05:10:38;;;;;;;158.37;149.43;;;9.50;99.90;;;;;;4423494;32;20504;-64
2021/12/24 05:13:06;;;;;;;162.57;153.50;;;9.50;99.90;;;;;;4435754;32;20239;-68
2021/12/24 05:15:35;;;;;;;143.80;135.37;;;9.50;99.90;;;;;;4435591;32;20155;-65
2021/12/24 05:18:13;;;;;;;147.97;140.40;;;9.50;99.90;;;;;;4438070;32;20169;-65
2021/12/24 05:23:40;;;;;;;156.63;148.13;;;9.40;99.90;;;;;;4361983;32;20154;-65
2021/12/24 05:26:07;;;;;;;145.63;137.50;;;9.40;99.90;;;;;;4374488;32;20585;-66
2021/12/24 05:28:34;;;;;;;154.57;146.03;;;9.40;99.90;;;;;;4374907;32;20220;-65
2021/12/24 05:31:01;;;;;;;147.63;139.30;;;9.40;99.90;;;;;;4373955;32;20179;-65
2021/12/24 05:33:29;;;;;;;143.17;135.17;;;9.40;99.90;;;;;;4374428;32;20167;-65
2021/12/24 05:35:56;;;;;;;152.53;144.30;;;9.40;99.90;;;;;;4375101;32;20169;-65
2021/12/24 05:38:23;;;;;;;135.03;127.43;;;9.40;99.90;;;;;;4375767;32;20560;-64
2021/12/24 05:40:50;;;;;;;140.53;132.47;;;9.30;99.90;;;;;;4375789;32;20162;-67
2021/12/24 05:43:16;;;;;;;144.70;136.60;;;9.30;99.90;;;;;;4374653;32;20183;-65
2021/12/24 05:45:43;;;;;;;150.30;141.93;;;9.30;99.90;;;;;;4374175;32;20178;-65
2021/12/24 05:48:10;;;;;;;152.07;144.13;;;9.30;99.90;;;;;;4375025;32;20478;-64
2021/12/24 05:50:38;;;;;;;150.37;142.17;;;9.30;99.90;;;;;;4374149;32;20200;-65
2021/12/24 05:53:05;;;;;;;148.97;140.87;;;9.30;99.90;;;;;;4375449;32;20179;-65
2021/12/24 05:55:32;;;;;;;152.10;144.20;;;9.30;99.90;;;;;;4422401;32;20176;-64
2021/12/24 05:57:59;;;;;;;152.80;144.70;;;9.20;99.90;;;;;;4429278;32;20228;-64
2021/12/24 06:00:26;;;;;;;148.37;140.33;;;9.20;99.90;;;;;;4433864;32;20177;-64
2021/12/24 06:02:53;;;;;;;148.00;140.53;;;9.20;99.90;;;;;;4424476;32;20489;-66
2021/12/24 06:05:20;;;;;;;162.30;154.00;;;9.20;99.90;;;;;;4435961;32;20219;-66
2021/12/24 06:07:48;;;;;;;147.67;139.83;;;9.20;99.90;;;;;;4433647;32;20169;-66
2021/12/24 06:10:15;;;;;;;145.43;137.97;;;9.20;99.90;;;;;;4427913;32;20201;-66
2021/12/24 06:12:42;;;;;;;161.87;153.33;;;9.20;99.90;;;;;;4435712;32;20155;-63
2021/12/24 06:15:09;;;;;;;176.87;167.53;;;9.20;99.90;;;;;;4431822;32;20208;-64
2021/12/24 06:17:38;;;;;;;182.13;172.83;;;9.20;99.90;;;;;;4429783;32;20620;-66
2021/12/24 06:20:07;;;;;;;154.97;146.80;;;9.10;99.90;;;;;;4428292;32;20670;-66
2021/12/24 06:22:34;;;;;;;154.60;146.73;;;9.00;99.90;;;;;;4423324;32;20206;-64
2021/12/24 06:25:03;;;;;;;155.87;147.73;;;9.00;99.90;;;;;;4425113;32;20174;-65
2021/12/24 06:27:31;;;;;;;156.43;147.67;;;8.90;99.90;;;;;;4423295;32;20184;-66
2021/12/24 06:29:58;;;;;;;161.67;152.53;;;9.00;99.90;;;;;;4421209;32;20193;-67
2021/12/24 06:32:25;;;;;;;155.27;147.17;;;8.90;99.90;;;;;;4436111;32;20178;-67
2021/12/24 06:34:52;;;;;;;153.70;145.30;;;8.80;99.90;;;;;;4437627;32;20183;-66
2021/12/24 06:37:19;;;;;;;160.40;151.47;;;8.80;99.90;;;;;;4429762;32;20163;-64
2021/12/24 06:39:46;;;;;;;163.10;152.93;;;8.70;99.90;;;;;;4428776;32;20202;-66
2021/12/24 06:42:15;;;;;;;163.63;154.60;;;8.70;99.90;;;;;;4423044;32;20164;-66
2021/12/24 06:44:42;;;;;;;157.77;149.40;;;8.80;99.90;;;;;;4429219;32;20529;-68
2021/12/24 06:47:09;;;;;;;159.43;150.93;;;8.70;99.90;;;;;;4435473;32;20175;-66
2021/12/24 06:49:36;;;;;;;172.27;163.23;;;8.70;99.90;;;;;;4432662;32;20254;-65
2021/12/24 06:52:03;;;;;;;161.47;152.40;;;8.70;99.90;;;;;;4436578;32;20176;-66
2021/12/24 06:54:33;;;;;;;164.70;156.50;;;8.80;99.90;;;;;;4432873;32;20161;-66
2021/12/24 06:57:00;;;;;;;154.77;145.93;;;8.70;99.90;;;;;;4423313;32;20161;-67
2021/12/24 06:59:28;;;;;;;153.43;144.27;;;8.70;99.90;;;;;;4432622;32;20156;-68
2021/12/24 07:01:59;;;;;;;155.70;146.70;;;8.60;99.90;;;;;;4425024;32;20546;-68
2021/12/24 07:04:26;;;;;;;151.93;143.30;;;8.70;99.90;;;;;;4428541;32;20228;-66
2021/12/24 07:06:54;;;;;;;136.57;129.13;;;8.70;99.90;;;;;;4421929;32;20186;-65
2021/12/24 07:09:22;;;;;;;138.00;129.23;;;8.70;99.90;;;;;;4430469;32;20530;-64
2021/12/24 07:11:50;;;;;;;142.83;134.90;;;8.80;99.90;;;;;;4422446;32;20162;-65
2021/12/24 07:14:17;;;;;;;153.23;144.10;;;8.80;99.90;;;;;;4436289;32;20197;-67
2021/12/24 07:16:45;;;;;;;160.50;151.23;;;8.80;99.90;;;;;;4439377;32;20174;-66
2021/12/24 07:19:12;;;;;;;160.20;152.13;;;8.80;99.90;;;;;;4433807;32;20190;-67
2021/12/24 07:21:41;;;;;;;145.63;137.93;;;8.80;99.90;;;;;;4437163;32;20160;-67
